Hovedside
METAR-TAF:

METAR-TAF

Lufthavner :

Arish, Egypt

breddegrad: 31-05N, lengdegrad: 033-49E, høyde over havet: 31 m

METAR: fraværende

Tid: 06:06 (04:06 UTC)

Varsel

Denne rapporten ble laget for 5 timer og 6 minutter siden, klokken 23:00 UTC
Varsel gyldig fra 29. klokken 00 UTC til 30. klokken 06 UTC
Vind 10 kt fra Vest
Sikt 10 km eller mer
Spredte skyer i en høyde av 2000 ft
Midlertidig
fra 29. klokken 00 UTC til 29. klokken 06 UTC
Sikt: 6000 m
Brutte skyer i en høyde av 2500 ft
regn

TAF: HEAR 282300Z 2900/3006 28010KT 9999 SCT020 TEMPO 2900/2906 6000 RA BKN025

Værobservasjoner og værvarsel for over 4000 flyplasser (METAR- og TAF-rapporter).

Tilgjengelige stasjoner er representert av de røde og gule prikkene på kartet.

Hold musepekeren over prikken for å se navnet på stasjonen.

Klikk så for å se værobservasjoner og -varsler.

For å forandre kartet kan du klikke på den grønne knappen med svart kryss for å zoome inn, på den grønne knappen med strek for å zoome ut, eller på de grønne pilene for å se tilstøtende kart.


METAR-TAF: